Time;durP1;ratioP1;P1;durP2;ratioP2;P2;SDS_P1;SDS_P2;PMS_P1;PMS_P2;Temp;Humidity;BMP_temperature;BMP_pressure;BME280_temperature;BME280_humidity;BME280_pressure;Samples;Min_cycle;Max_cycle;Signal;HPM_P1;HPM_P2
2022/01/31 00:01:38;;;;;;;;;;;3.00;99.90;;;1.84;79.78;95945.53;10573191;28;1972;-82
2022/01/31 00:06:47;;;;;;;;;;;3.00;99.90;;;1.82;79.87;95916.59;10578106;28;1817;-83
2022/01/31 00:11:57;;;;;;;;;;;3.10;99.90;;;1.83;80.20;95901.50;10573752;28;1880;-82
2022/01/31 00:17:00;;;;;;;;;;;3.00;99.90;;;1.88;79.32;95893.72;10583165;28;1976;-81
2022/01/31 00:22:04;;;;;;;;;;;3.30;99.90;;;1.96;79.39;95880.19;10590500;28;1973;-82
2022/01/31 00:27:07;;;;;;;;;;;3.00;99.90;;;2.09;79.45;95876.59;10596874;28;1774;-82
2022/01/31 00:32:10;;;;;;;;;;;3.10;99.90;;;2.10;79.12;95867.63;10584567;28;1841;-81
2022/01/31 00:37:13;;;;;;;;;;;3.10;99.90;;;2.14;78.83;95859.03;10567009;28;1872;-79
2022/01/31 00:42:16;;;;;;;;;;;3.10;99.90;;;2.18;78.64;95848.78;10582784;28;1883;-82
2022/01/31 00:47:23;;;;;;;;;;;3.20;99.90;;;2.26;78.45;95837.09;10611375;28;1617;-79
2022/01/31 00:52:26;;;;;;;;;;;3.30;99.90;;;2.31;78.81;95821.31;10613731;28;1741;-81
2022/01/31 00:57:29;;;;;;;;;;;3.30;99.90;;;2.31;78.59;95816.03;10602654;28;1496;-82
2022/01/31 01:02:33;;;;;;;;;;;3.30;99.90;;;2.42;78.53;95807.34;10573932;28;1886;-82
2022/01/31 01:07:37;;;;;;;;;;;3.40;99.90;;;2.40;78.16;95817.34;10571677;28;1822;-80
2022/01/31 01:12:40;;;;;;;;;;;3.40;99.90;;;2.38;78.01;95806.16;10572563;28;1889;-81
2022/01/31 01:17:45;;;;;;;;;;;3.40;99.90;;;2.37;78.41;95815.13;10574074;28;1663;-80
2022/01/31 01:22:49;;;;;;;;;;;3.40;99.90;;;2.26;79.19;95782.19;10571298;28;1886;-82
2022/01/31 01:27:53;;;;;;;;;;;3.30;99.90;;;2.16;79.67;95777.41;10573633;28;1814;-78
2022/01/31 01:33:05;;;;;;;;;;;3.20;99.90;;;2.14;80.00;95762.75;10567496;28;1727;-81
2022/01/31 01:38:10;;;;;;;;;;;3.20;99.90;;;2.17;80.17;95757.81;10573926;28;1866;-82
2022/01/31 01:43:13;;;;;;;;;;;3.20;99.90;;;2.10;80.49;95749.13;10576835;28;1914;-80
2022/01/31 01:48:16;;;;;;;;;;;3.10;99.90;;;2.12;80.77;95728.50;10597743;28;1802;-82
2022/01/31 01:53:19;;;;;;;;;;;3.10;99.90;;;2.06;80.80;95700.22;10585173;28;1868;-82
2022/01/31 01:58:23;;;;;;;;;;;3.10;99.90;;;2.11;81.38;95689.75;10594964;28;1731;-80
2022/01/31 02:03:26;;;;;;;;;;;3.10;99.90;;;2.09;81.82;95678.53;10592467;28;1886;-83
2022/01/31 02:08:38;;;;;;;;;;;3.10;99.90;;;1.98;82.18;95636.91;10585332;28;1786;-84
2022/01/31 02:13:42;;;;;;;;;;;3.10;99.90;;;2.05;81.97;95632.31;10576516;28;1865;-83
2022/01/31 02:18:49;;;;;;;;;;;3.10;99.90;;;1.96;82.30;95633.63;10606137;28;1373;-82
2022/01/31 02:23:52;;;;;;;;;;;3.00;99.90;;;2.05;82.06;95629.66;10599781;28;1934;-80
2022/01/31 02:28:56;;;;;;;;;;;3.00;99.90;;;2.05;82.29;95611.09;10604835;28;1790;-83
2022/01/31 02:34:00;;;;;;;;;;;3.00;99.90;;;1.98;83.37;95593.66;10608369;28;1715;-82
2022/01/31 02:39:04;;;;;;;;;;;3.00;99.90;;;1.97;82.94;95576.94;10612126;28;1790;-81
2022/01/31 02:44:14;;;;;;;;;;;3.00;99.90;;;2.00;83.26;95583.63;10609370;28;1886;-83
2022/01/31 02:49:20;;;;;;;;;;;3.00;99.90;;;2.00;83.10;95581.00;10607461;28;1841;-85
2022/01/31 02:54:22;;;;;;;;;;;3.00;99.90;;;2.00;83.27;95565.09;10605857;28;1564;-83
2022/01/31 02:59:25;;;;;;;;;;;3.00;99.90;;;2.02;83.04;95553.22;10598952;28;1554;-85
2022/01/31 03:04:29;;;;;;;;;;;3.00;99.90;;;2.11;82.69;95546.56;10590374;28;1905;-81
2022/01/31 03:09:32;;;;;;;;;;;3.10;99.90;;;2.09;82.09;95524.75;10561090;28;1841;-82
2022/01/31 03:14:35;;;;;;;;;;;3.10;99.90;;;2.05;82.93;95502.41;10570175;28;1845;-82
2022/01/31 03:19:40;;;;;;;;;;;3.00;99.90;;;2.00;82.58;95501.47;10581459;28;1884;-81
2022/01/31 03:24:43;;;;;;;;;;;3.10;99.90;;;1.99;82.68;95497.19;10578592;28;1938;-79
2022/01/31 03:29:47;;;;;;;;;;;3.00;99.90;;;1.98;83.52;95512.28;10587475;28;1762;-82
2022/01/31 03:34:50;;;;;;;;;;;3.00;99.90;;;1.95;84.06;95491.53;10586259;28;2359;-82
2022/01/31 03:39:53;;;;;;;;;;;3.00;99.90;;;1.99;84.15;95476.00;10590677;28;1837;-81
2022/01/31 03:44:57;;;;;;;;;;;3.00;99.90;;;1.95;83.79;95441.16;10591922;28;1956;-81
2022/01/31 03:50:00;;;;;;;;;;;3.00;99.90;;;1.98;83.98;95437.25;10595099;28;2092;-83
2022/01/31 03:55:03;;;;;;;;;;;3.00;99.90;;;1.95;83.82;95413.84;10602100;28;1959;-82
2022/01/31 04:00:07;;;;;;;;;;;3.00;99.90;;;2.04;83.22;95429.19;10567865;28;1936;-81
2022/01/31 04:05:10;;;;;;;;;;;3.10;99.90;;;2.07;83.74;95390.81;10567665;28;1949;-82
2022/01/31 04:10:13;;;;;;;;;;;3.10;99.90;;;1.99;83.67;95370.75;10575699;28;1927;-81
2022/01/31 04:15:17;;;;;;;;;;;3.10;99.90;;;2.06;83.54;95363.50;10570187;28;1959;-82
2022/01/31 04:20:20;;;;;;;;;;;3.10;99.90;;;2.13;83.34;95347.47;10580859;28;2007;-79
2022/01/31 04:25:31;;;;;;;;;;;3.10;99.90;;;2.11;83.41;95344.25;10607601;28;1959;-82
2022/01/31 04:30:36;;;;;;;;;;;3.20;99.90;;;2.09;83.39;95302.03;10601396;28;1943;-81
2022/01/31 04:35:39;;;;;;;;;;;3.20;99.90;;;2.21;83.53;95303.88;10573564;28;2224;-83
2022/01/31 04:40:42;;;;;;;;;;;3.20;99.90;;;2.28;84.14;95307.22;10579646;28;1941;-83
2022/01/31 04:45:48;;;;;;;;;;;3.30;99.90;;;2.34;83.76;95290.38;10604284;28;1993;-82
2022/01/31 04:50:51;;;;;;;;;;;3.30;99.90;;;2.17;84.11;95247.88;10600102;28;1904;-82
2022/01/31 04:55:54;;;;;;;;;;;3.40;99.90;;;2.22;83.97;95231.22;10608357;28;1639;-81
2022/01/31 05:00:57;;;;;;;;;;;3.30;99.90;;;2.16;84.92;95223.19;10602744;28;1876;-82
2022/01/31 05:06:04;;;;;;;;;;;3.20;99.90;;;2.24;84.92;95250.38;10590163;27;1952;-82
2022/01/31 05:11:08;;;;;;;;;;;3.30;99.90;;;2.21;84.22;95240.22;10577744;27;1849;-82
2022/01/31 05:16:11;;;;;;;;;;;3.30;99.90;;;2.19;84.68;95229.06;10578879;27;1888;-81
2022/01/31 05:21:14;;;;;;;;;;;3.30;99.90;;;2.15;85.31;95207.50;10570078;28;1782;-82
2022/01/31 05:26:17;;;;;;;;;;;3.30;99.90;;;2.20;86.47;95193.53;10581114;27;1911;-82
2022/01/31 05:31:20;;;;;;;;;;;3.20;99.90;;;2.03;87.45;95188.97;10570612;27;2107;-82
2022/01/31 05:36:24;;;;;;;;;;;3.20;99.90;;;2.13;87.99;95194.47;10561135;28;2138;-82
2022/01/31 05:41:27;;;;;;;;;;;3.20;99.90;;;1.99;88.74;95187.03;10577548;28;1853;-79
2022/01/31 05:46:30;;;;;;;;;;;3.10;99.90;;;2.07;89.84;95184.81;10575100;27;2003;-82
2022/01/31 05:51:33;;;;;;;;;;;3.00;99.90;;;2.04;90.84;95180.00;10570225;27;1941;-83
2022/01/31 05:56:36;;;;;;;;;;;3.10;99.90;;;2.08;91.40;95173.16;10581858;28;1746;-80
2022/01/31 06:01:39;;;;;;;;;;;3.10;99.90;;;1.99;92.24;95179.09;10576855;28;2092;-81
2022/01/31 06:06:43;;;;;;;;;;;3.10;99.90;;;2.00;93.17;95178.84;10581376;28;1964;-79
2022/01/31 06:11:51;;;;;;;;;;;3.00;99.90;;;2.03;92.85;95188.16;10578625;28;2100;-80
2022/01/31 06:16:55;;;;;;;;;;;;;;;2.01;90.67;95179.66;10576399;27;1872;-80
2022/01/31 06:21:58;;;;;;;;;;;;;;;2.02;90.09;95150.25;10571626;28;1838;-82
2022/01/31 06:27:02;;;;;;;;;;;;;;;1.94;88.82;95121.47;10591174;28;2080;-82
2022/01/31 06:32:05;;;;;;;;;;;;;;;2.06;87.60;95118.78;10600815;27;1759;-82
2022/01/31 06:37:08;;;;;;;;;;;;;;;2.09;85.25;95103.19;10600428;28;1695;-83
2022/01/31 06:42:12;;;;;;;;;;;;;;;2.11;83.38;95106.44;10603763;27;1723;-80
2022/01/31 06:47:16;;;;;;;;;;;;;;;2.19;82.84;95101.78;10571662;27;1910;-81
2022/01/31 06:52:19;;;;;;;;;;;;;;;2.22;81.82;95077.44;10601942;28;1889;-82
2022/01/31 06:57:25;;;;;;;;;;;;;;;2.21;81.03;95073.97;10573224;28;2107;-83
2022/01/31 07:02:30;;;;;;;;;;;;;;;2.25;80.59;95064.50;10576774;27;1854;-81
2022/01/31 07:07:33;;;;;;;;;;;;;;;2.32;79.86;95053.75;10591743;28;1887;-82
2022/01/31 07:12:39;;;;;;;;;;;;;;;2.35;79.43;95032.03;10600775;28;1794;-81
2022/01/31 07:17:44;;;;;;;;;;;;;;;2.43;79.31;95029.00;10590737;28;1833;-83
2022/01/31 07:22:52;;;;;;;;;;;;;;;2.43;79.29;95026.38;10595557;28;1847;-77
2022/01/31 07:27:56;;;;;;;;;;;;;;;2.55;80.60;95011.19;10569419;28;1909;-78
2022/01/31 07:32:59;;;;;;;;;;;;;;;2.56;81.50;94996.84;10556335;28;1842;-79
2022/01/31 07:38:03;;;;;;;;;;;;;;;2.63;81.47;94973.63;10569974;28;1857;-81
2022/01/31 07:43:06;;;;;;;;;;;;;;;2.57;82.77;94961.31;10583071;28;2002;-80
2022/01/31 07:48:10;;;;;;;;;;;;;;;2.68;82.55;94931.22;10561118;28;2056;-78
2022/01/31 07:53:13;;;;;;;;;;;;;;;2.86;82.78;94931.97;10555327;28;1968;-78
2022/01/31 07:58:18;;;;;;;;;;;;;;;2.88;82.97;94929.91;10564393;27;2165;-80
2022/01/31 08:03:23;;;;;;;;;;;;;;;2.97;83.29;94896.56;10569300;28;1910;-76
2022/01/31 08:08:29;;;;;;;;;;;;;;;3.10;82.66;94900.69;10556999;27;2108;-77
2022/01/31 08:13:33;;;;;;;;;;;;;;;3.16;82.29;94886.41;10570004;27;1946;-79
2022/01/31 08:18:36;;;;;;;;;;;;;;;3.36;81.99;94877.88;10558803;27;1797;-78
2022/01/31 08:23:40;;;;;;;;;;;;;;;3.44;81.69;94864.94;10560233;27;1882;-78
2022/01/31 08:28:47;;;;;;;;;;;;;;;3.34;84.77;94869.34;10562992;27;2040;-78
2022/01/31 08:34:04;;;;;;;;;;;;;;;3.25;87.47;94888.41;10563512;28;1973;-77
2022/01/31 08:39:08;;;;;;;;;;;;;;;3.18;89.38;94890.44;10566573;28;1813;-79
2022/01/31 08:44:12;;;;;;;;;;;;;;;3.05;92.79;94887.34;10574115;28;1895;-80
2022/01/31 08:49:16;;;;;;;;;;;;;;;2.74;98.05;94881.69;10552853;27;1801;-80
2022/01/31 08:54:20;;;;;;;;;;;;;;;2.71;100.00;94880.31;10552273;27;1855;-79
2022/01/31 08:59:25;;;;;;;;;;;;;;;2.63;100.00;94870.13;10571325;27;1895;-78
2022/01/31 09:04:34;;;;;;;;;;;;;;;2.49;100.00;94879.50;10557147;27;1979;-77
2022/01/31 09:09:37;;;;;;;;;;;;;;;2.45;100.00;94878.38;10548938;28;1927;-77
2022/01/31 09:14:41;;;;;;;;;;;;;;;2.45;100.00;94870.41;10554835;27;1874;-76
2022/01/31 09:19:48;;;;;;;;;;;;;;;2.47;100.00;94847.09;10568434;28;1838;-79
2022/01/31 09:24:53;;;;;;;;;;;;;;;2.48;100.00;94851.34;10571652;27;1984;-78
2022/01/31 09:29:57;;;;;;;;;;;;;;;2.55;100.00;94840.56;10570073;28;2171;-78
2022/01/31 09:35:00;;;;;;;;;;;;;;;2.63;100.00;94838.28;10556368;27;1791;-78
2022/01/31 09:40:05;;;;;;;;;;;;;;;2.68;100.00;94841.00;10561673;27;1886;-77
2022/01/31 09:45:16;;;;;;;;;;;;;;;2.56;100.00;94836.88;10561413;27;1980;-77
2022/01/31 09:50:19;;;;;;;;;;;3.50;99.90;;;2.42;100.00;94852.34;10556304;28;1948;-77
2022/01/31 09:55:25;;;;;;;;;;;3.40;99.90;;;2.33;100.00;94849.28;10570366;28;2049;-79
2022/01/31 10:00:28;;;;;;;;;;;3.30;99.90;;;2.42;100.00;94841.75;10577775;27;1996;-78
2022/01/31 10:05:31;;;;;;;;;;;3.40;99.90;;;2.39;100.00;94860.78;10575281;27;1910;-75
2022/01/31 10:10:39;;;;;;;;;;;4.20;99.90;;;2.31;100.00;94861.19;10561024;27;1848;-76
2022/01/31 10:21:03;;;;;;;;;;;3.40;99.90;;;2.50;100.00;94853.78;10556620;28;1725;-77
2022/01/31 10:26:06;;;;;;;;;;;3.40;99.90;;;2.47;100.00;94844.44;10571740;28;1899;-79
2022/01/31 10:31:09;;;;;;;;;;;3.50;99.90;;;2.39;100.00;94839.56;10569490;27;1802;-77
2022/01/31 10:36:12;;;;;;;;;;;3.40;99.90;;;2.43;100.00;94848.66;10599232;27;1766;-79
2022/01/31 10:52:02;;;;;;;;;;;3.40;99.90;;;2.49;100.00;94847.66;10574841;28;1796;-78
2022/01/31 10:57:06;;;;;;;;;;;3.40;99.90;;;2.66;100.00;94843.09;10594056;28;1800;-77
2022/01/31 11:02:14;;;;;;;;;;;3.60;99.90;;;2.86;100.00;94833.75;10600819;28;1912;-78
2022/01/31 11:07:17;;;;;;;;;;;3.80;99.90;;;2.86;100.00;94853.19;10595481;28;1974;-79
2022/01/31 11:12:23;;;;;;;;;;;3.90;99.90;;;2.92;100.00;94852.16;10596299;28;1781;-81
2022/01/31 11:17:27;;;;;;;;;;;3.80;99.90;;;2.68;100.00;94845.53;10597050;28;1778;-80
2022/01/31 11:22:34;;;;;;;;;;;3.70;99.90;;;2.37;100.00;94842.47;10599525;28;1801;-80
2022/01/31 11:27:53;;;;;;;;;;;3.50;99.90;;;2.47;100.00;94854.25;10625855;27;1890;-82
2022/01/31 11:32:55;;;;;;;;;;;3.40;99.90;;;2.74;100.00;94864.97;10598868;28;1765;-80
2022/01/31 11:37:58;;;;;;;;;;;3.60;99.90;;;3.08;100.00;94849.69;10595401;27;1819;-80
2022/01/31 11:43:02;;;;;;;;;;;3.80;99.90;;;3.47;100.00;94858.31;10564815;28;1841;-77
2022/01/31 11:48:05;;;;;;;;;;;4.10;99.90;;;3.41;100.00;94840.72;10563417;28;2007;-78
2022/01/31 11:53:08;;;;;;;;;;;4.30;99.90;;;3.63;100.00;94840.69;10555207;27;1835;-78
2022/01/31 11:58:14;;;;;;;;;;;4.40;99.90;;;3.44;98.52;94826.97;10561532;28;1806;-77
2022/01/31 12:03:17;;;;;;;;;;;4.40;99.90;;;3.44;98.78;94829.63;10562789;27;1855;-78
2022/01/31 12:08:22;;;;;;;;;;;4.40;99.90;;;3.42;99.47;94829.03;10567069;27;1902;-78
2022/01/31 12:13:26;;;;;;;;;;;4.30;99.90;;;3.50;98.86;94812.66;10566520;27;1841;-79
2022/01/31 12:18:38;;;;;;;;;;;3.50;99.90;;;3.57;97.07;94805.28;10570763;27;1952;-80
2022/01/31 12:23:43;;;;;;;;;;;4.50;99.90;;;3.68;94.78;94791.00;10576883;27;1890;-79
2022/01/31 12:28:48;;;;;;;;;;;4.50;99.90;;;3.71;94.33;94816.28;10570612;27;2009;-80
2022/01/31 12:33:50;;;;;;;;;;;4.70;99.90;;;3.83;94.84;94794.84;10560199;27;1968;-76
2022/01/31 12:38:53;;;;;;;;;;;5.30;99.90;;;3.77;92.56;94786.84;10552993;28;1849;-77
2022/01/31 12:43:56;;;;;;;;;;;4.70;99.90;;;3.91;90.35;94773.09;10557371;28;1897;-77
2022/01/31 12:49:00;;;;;;;;;;;;;;;3.74;89.32;94779.34;10557990;28;2012;-77
2022/01/31 12:54:04;;;;;;;;;;;;;;;3.62;87.42;94770.75;10555693;28;1844;-78
2022/01/31 12:59:08;;;;;;;;;;;;;;;3.79;87.85;94776.75;10559560;27;1889;-77
2022/01/31 13:04:12;;;;;;;;;;;;;;;3.81;86.32;94784.44;10561532;27;1875;-79
2022/01/31 13:09:16;;;;;;;;;;;;;;;3.67;85.37;94773.47;10572032;27;2068;-77
2022/01/31 13:14:21;;;;;;;;;;;;;;;3.75;85.86;94773.00;10565608;27;1852;-77
2022/01/31 13:19:46;;;;;;;;;;;;;;;3.74;83.61;94755.44;10557714;28;1861;-77
2022/01/31 13:24:49;;;;;;;;;;;;;;;3.94;83.00;94769.91;10572521;27;1917;-78
2022/01/31 13:29:52;;;;;;;;;;;;;;;4.16;83.03;94754.63;10571346;27;1908;-76
2022/01/31 13:34:55;;;;;;;;;;;;;;;4.16;82.19;94769.78;10569686;27;1939;-77
2022/01/31 13:39:59;;;;;;;;;;;;;;;4.16;80.63;94751.97;10568916;22;2001;-71
2022/01/31 13:45:02;;;;;;;;;;;;;;;4.01;80.95;94766.00;10554852;27;1903;-70
2022/01/31 13:50:12;;;;;;;;;;;;;;;3.76;82.59;94782.56;10556694;28;1894;-72
2022/01/31 13:55:15;;;;;;;;;;;;;;;3.61;83.25;94785.09;10551627;28;1916;-71
2022/01/31 14:00:19;;;;;;;;;;;;;;;3.79;83.26;94766.09;10557537;28;2025;-72
2022/01/31 14:05:21;;;;;;;;;;;4.70;99.90;;;3.68;83.02;94779.56;10556516;28;1952;-72
2022/01/31 14:10:24;;;;;;;;;;;5.40;99.90;;;3.54;84.92;94776.53;10559006;28;1839;-71
2022/01/31 14:15:28;;;;;;;;;;;;;;;3.29;85.08;94771.81;10557135;28;1821;-70
2022/01/31 14:20:31;;;;;;;;;;;;;;;3.23;84.50;94773.63;10556692;28;1908;-72
2022/01/31 14:25:34;;;;;;;;;;;;;;;3.06;85.97;94788.88;10538507;22;2005;-71
2022/01/31 14:30:37;;;;;;;;;;;;;;;2.94;90.35;94770.44;10513067;28;2068;-69
2022/01/31 14:35:41;;;;;;;;;;;;;;;2.78;91.88;94770.50;10511449;28;1786;-69
2022/01/31 14:51:32;;;;;;;;;;;;;;;2.83;88.11;94767.91;10512766;28;2167;-68
2022/01/31 14:56:36;;;;;;;;;;;;;;;2.96;86.12;94746.28;10509743;28;2003;-69
2022/01/31 15:01:58;;;;;;;;;;;;;;;3.04;87.38;94764.41;10509612;28;1862;-70
2022/01/31 15:07:22;;;;;;;;;;;;;;;2.98;88.45;94768.06;10510702;28;1998;-71
2022/01/31 15:12:25;;;;;;;;;;;;;;;3.04;89.69;94753.78;10511357;28;1954;-69
2022/01/31 15:17:30;;;;;;;;;;;;;;;3.09;90.08;94750.41;10507732;28;1910;-69
2022/01/31 15:22:33;;;;;;;;;;;;;;;2.92;88.65;94734.56;10513205;28;1883;-70
2022/01/31 15:27:37;;;;;;;;;;;;;;;2.78;89.38;94749.28;10510896;28;1980;-69
2022/01/31 15:32:40;;;;;;;;;;;;;;;2.58;89.33;94761.28;10506872;28;1834;-68
2022/01/31 15:37:46;;;;;;;;;;;;;;;2.52;89.30;94766.78;10506550;28;1885;-69
2022/01/31 15:42:54;;;;;;;;;;;3.50;99.90;;;2.56;87.92;94747.47;10508861;28;1874;-69
2022/01/31 15:47:57;;;;;;;;;;;3.40;99.90;;;2.50;89.92;94766.22;10508077;28;1922;-70
2022/01/31 15:53:06;;;;;;;;;;;3.40;99.90;;;2.36;96.28;94768.47;10512484;28;1912;-70
2022/01/31 15:58:09;;;;;;;;;;;3.70;99.90;;;2.06;100.00;94768.84;10509526;28;1850;-71
2022/01/31 16:03:14;;;;;;;;;;;3.40;99.90;;;1.63;100.00;94757.91;10508596;28;1834;-70
2022/01/31 16:08:17;;;;;;;;;;;2.90;99.90;;;1.45;100.00;94760.81;10513824;28;2048;-70
2022/01/31 16:13:21;;;;;;;;;;;2.70;99.90;;;1.29;100.00;94774.88;10506396;28;1799;-69
2022/01/31 16:18:24;;;;;;;;;;;2.40;99.90;;;1.31;100.00;94780.72;10512115;28;1842;-72
2022/01/31 16:23:28;;;;;;;;;;;2.30;99.90;;;1.27;100.00;94787.50;10511464;28;1827;-71
2022/01/31 16:28:32;;;;;;;;;;;;;;;1.29;100.00;94786.25;10520206;28;1967;-71
2022/01/31 16:33:55;;;;;;;;;;;;;;;1.14;100.00;94778.03;10517065;28;1835;-72
2022/01/31 16:38:59;;;;;;;;;;;;;;;1.13;100.00;94784.38;10517501;28;1865;-71
2022/01/31 16:44:03;;;;;;;;;;;;;;;1.06;100.00;94786.38;10519321;28;1842;-71
2022/01/31 16:49:08;;;;;;;;;;;;;;;1.09;100.00;94799.16;10521611;28;1914;-72
2022/01/31 16:54:11;;;;;;;;;;;;;;;1.08;100.00;94806.28;10515509;28;1858;-71
2022/01/31 16:59:14;;;;;;;;;;;2.00;99.90;;;1.01;100.00;94815.38;10518412;28;1842;-71
2022/01/31 17:04:17;;;;;;;;;;;2.40;99.90;;;0.93;100.00;94813.94;10515459;28;1879;-70
2022/01/31 17:09:20;;;;;;;;;;;2.00;99.90;;;0.93;100.00;94827.16;10515751;28;1972;-71
2022/01/31 17:14:23;;;;;;;;;;;2.00;99.90;;;0.92;100.00;94838.00;10515066;28;1872;-71
2022/01/31 17:19:26;;;;;;;;;;;2.00;99.90;;;0.88;100.00;94848.22;10517895;28;1797;-70
2022/01/31 17:24:29;;;;;;;;;;;1.90;99.90;;;0.78;100.00;94867.38;10520148;28;1829;-72
2022/01/31 17:29:32;;;;;;;;;;;1.90;99.90;;;0.78;100.00;94866.56;10517831;28;1919;-71
2022/01/31 17:34:37;;;;;;;;;;;1.80;99.90;;;0.80;100.00;94891.75;10513061;28;1845;-72
2022/01/31 17:39:40;;;;;;;;;;;1.80;99.90;;;0.79;100.00;94900.72;10514396;28;1844;-72
2022/01/31 17:44:46;;;;;;;;;;;1.80;99.90;;;0.71;100.00;94905.56;10514531;28;1866;-72
2022/01/31 17:49:49;;;;;;;;;;;1.80;99.90;;;0.57;100.00;94904.19;10536013;28;2042;-74
2022/01/31 17:54:52;;;;;;;;;;;1.70;99.90;;;0.48;100.00;94909.84;10513993;28;2103;-73
2022/01/31 17:59:55;;;;;;;;;;;1.60;99.90;;;0.37;100.00;94915.94;10519601;28;2380;-72
2022/01/31 18:04:57;;;;;;;;;;;1.40;99.90;;;0.47;100.00;94932.03;10518540;28;2326;-73
2022/01/31 18:10:00;;;;;;;;;;;1.50;99.90;;;0.56;100.00;94932.47;10520853;28;1914;-73
2022/01/31 18:15:03;;;;;;;;;;;1.50;99.90;;;0.63;100.00;94946.38;10517594;28;1882;-73
2022/01/31 18:20:06;;;;;;;;;;;1.60;99.90;;;0.66;100.00;94963.66;10519822;28;1866;-72
2022/01/31 18:25:10;;;;;;;;;;;1.70;99.90;;;0.71;100.00;94964.56;10521649;28;1861;-73
2022/01/31 18:30:13;;;;;;;;;;;1.70;99.90;;;0.80;100.00;94965.00;10522949;28;1895;-73
2022/01/31 18:35:17;;;;;;;;;;;1.90;99.90;;;0.85;100.00;94975.72;10525126;28;1895;-73
2022/01/31 18:40:20;;;;;;;;;;;1.80;99.90;;;0.90;100.00;94972.38;10523130;28;2052;-73
2022/01/31 18:45:23;;;;;;;;;;;1.90;99.90;;;0.98;100.00;94980.75;10514414;28;1841;-73
2022/01/31 18:50:28;;;;;;;;;;;1.90;99.90;;;0.97;100.00;94989.72;10508182;28;2039;-73
2022/01/31 18:55:31;;;;;;;;;;;2.00;99.90;;;0.86;100.00;95014.34;10521136;28;1637;-73
2022/01/31 19:00:34;;;;;;;;;;;1.90;99.90;;;0.97;100.00;95008.25;10519638;28;1724;-72
2022/01/31 19:05:37;;;;;;;;;;;2.00;99.90;;;0.99;100.00;94987.66;10512405;28;1852;-72
2022/01/31 19:10:51;;;;;;;;;;;2.00;99.90;;;1.05;100.00;95012.38;10514067;28;1913;-74
2022/01/31 19:15:54;;;;;;;;;;;2.00;99.90;;;1.01;100.00;95017.31;10512315;28;1825;-72
2022/01/31 19:20:57;;;;;;;;;;;2.00;99.90;;;0.91;100.00;95017.13;10512959;28;1836;-72
2022/01/31 19:26:00;;;;;;;;;;;2.00;99.90;;;0.91;100.00;95013.66;10508489;28;1911;-72
2022/01/31 19:31:04;;;;;;;;;;;1.90;99.90;;;0.87;100.00;95026.53;10518094;28;1921;-73
2022/01/31 19:36:08;;;;;;;;;;;1.90;99.90;;;0.97;100.00;95036.56;10528602;28;1859;-72
2022/01/31 19:46:32;;;;;;;;;;;1.90;99.90;;;0.94;100.00;95043.09;10510008;28;1988;-73
2022/01/31 19:51:36;;;;;;;;;;;1.90;99.90;;;0.93;100.00;95052.09;10517970;28;1905;-73
2022/01/31 19:56:39;;;;;;;;;;;1.90;99.90;;;0.90;100.00;95052.56;10541065;28;1877;-72
2022/01/31 20:01:43;;;;;;;;;;;1.90;99.90;;;0.92;100.00;95066.34;10541988;28;1758;-72
2022/01/31 20:06:46;;;;;;;;;;;1.90;99.90;;;0.91;100.00;95059.47;10528400;28;1906;-72
2022/01/31 20:11:49;;;;;;;;;;;1.90;99.90;;;0.81;100.00;95064.50;10518234;28;1861;-73
2022/01/31 20:16:52;;;;;;;;;;;1.90;99.90;;;0.65;100.00;95065.22;10511756;28;1854;-72
2022/01/31 20:21:57;;;;;;;;;;;1.70;99.90;;;0.69;100.00;95076.91;10516396;28;1893;-72
2022/01/31 20:27:01;;;;;;;;;;;1.70;99.90;;;0.63;100.00;95073.34;10514405;28;1965;-71
2022/01/31 20:32:04;;;;;;;;;;;1.70;99.90;;;0.51;100.00;95083.94;10531076;22;3600;-71
2022/01/31 20:37:11;;;;;;;;;;;1.60;99.90;;;0.41;100.00;95093.44;10530929;28;1944;-72
2022/01/31 20:42:14;;;;;;;;;;;1.50;99.90;;;0.30;100.00;95092.38;10513965;28;1925;-72
2022/01/31 20:47:18;;;;;;;;;;;1.40;99.90;;;0.24;100.00;95099.38;10518865;28;2435;-72
2022/01/31 20:52:22;;;;;;;;;;;1.30;99.90;;;0.25;100.00;95094.88;10513958;28;1846;-71
2022/01/31 20:57:26;;;;;;;;;;;1.30;99.90;;;0.36;100.00;95083.53;10507674;28;1799;-70
2022/01/31 21:02:29;;;;;;;;;;;1.30;99.90;;;0.42;100.00;95081.81;10510050;28;1866;-71
2022/01/31 21:07:32;;;;;;;;;;;1.40;99.90;;;0.46;100.00;95104.94;10512206;28;1911;-72
2022/01/31 21:12:36;;;;;;;;;;;1.50;99.90;;;0.43;100.00;95100.09;10517220;28;1932;-71
2022/01/31 21:17:39;;;;;;;;;;;1.50;99.90;;;0.29;100.00;95090.75;10511050;28;1731;-70
2022/01/31 21:22:43;;;;;;;;;;;1.40;99.90;;;0.30;100.00;95116.16;10507651;28;2454;-70
2022/01/31 21:27:48;;;;;;;;;;;1.30;99.90;;;0.29;100.00;95119.84;10518542;28;1892;-70
2022/01/31 21:32:51;;;;;;;;;;;1.30;99.90;;;0.32;100.00;95143.19;10510874;28;1851;-70
2022/01/31 21:37:55;;;;;;;;;;;1.30;99.90;;;0.38;100.00;95144.94;10509507;28;1855;-70
2022/01/31 21:42:58;;;;;;;;;;;1.30;99.90;;;0.36;100.00;95141.69;10508683;28;1814;-71
2022/01/31 21:48:01;;;;;;;;;;;1.30;99.90;;;0.39;100.00;95151.84;10510461;28;1989;-70
2022/01/31 21:53:04;;;;;;;;;;;1.40;99.90;;;0.32;100.00;95161.72;10530695;28;1924;-71
2022/01/31 21:58:07;;;;;;;;;;;1.40;99.90;;;0.34;100.00;95157.00;10541078;28;1849;-70
2022/01/31 22:03:13;;;;;;;;;;;1.30;99.90;;;0.34;100.00;95172.84;10538589;28;1968;-71
2022/01/31 22:08:22;;;;;;;;;;;1.30;99.90;;;0.42;100.00;95164.59;10551276;28;1937;-71
2022/01/31 22:13:27;;;;;;;;;;;1.40;99.90;;;0.48;100.00;95171.63;10519052;28;1821;-71
2022/01/31 22:18:30;;;;;;;;;;;1.50;99.90;;;0.34;100.00;95175.50;10504679;28;1862;-71
2022/01/31 22:23:34;;;;;;;;;;;1.40;99.90;;;0.33;100.00;95165.97;10507115;28;1829;-70
2022/01/31 22:28:37;;;;;;;;;;;1.30;99.90;;;0.39;100.00;95162.41;10504944;28;1945;-70
2022/01/31 22:33:49;;;;;;;;;;;1.40;99.90;;;0.43;100.00;95166.22;10507969;28;1927;-72
2022/01/31 22:38:52;;;;;;;;;;;1.40;99.90;;;0.49;100.00;95160.03;10512495;28;1786;-72
2022/01/31 22:43:55;;;;;;;;;;;1.40;99.90;;;0.51;100.00;95155.34;10505693;28;1976;-71
2022/01/31 22:48:58;;;;;;;;;;;1.50;99.90;;;0.64;100.00;95174.69;10509853;28;1914;-69
2022/01/31 22:54:01;;;;;;;;;;;1.60;99.90;;;0.69;100.00;95172.94;10506096;28;1976;-71
2022/01/31 22:59:05;;;;;;;;;;;1.60;99.90;;;0.69;100.00;95177.44;10509547;28;1858;-70
2022/01/31 23:04:08;;;;;;;;;;;1.70;99.90;;;0.73;100.00;95197.13;10506898;28;1842;-71
2022/01/31 23:09:11;;;;;;;;;;;1.70;99.90;;;0.77;100.00;95200.94;10508828;28;1918;-72
2022/01/31 23:14:21;;;;;;;;;;;1.70;99.90;;;0.81;100.00;95210.81;10511460;28;1966;-71
2022/01/31 23:19:32;;;;;;;;;;;1.80;99.90;;;0.91;100.00;95215.59;10505257;28;1831;-71
